KBFI/BFI METAR and TAF weather

Enter ICAO airport designator
Station Type Date Time Source
KBFI METAR 2019/02/23 22:53 UTC NOAA

KBFI 232253Z 22005KT 10SM FEW050 BKN075 08/01 A3009 RMK AO2 SLP189 T00780011


Station Type Date Time Source
KBFI Decoded METAR 2019/02/23 22:53 UTC NOAA

SEATTLE BOEING FIELD, WA, United States (KBFI) 47-33N 122-19W 4M
Feb 23, 2019 - 05:53 PM EST / 2019.02.23 2253 UTC
Wind: from the SW (220 degrees) at 6 MPH (5 KT):0
Visibility: 10 mile(s):0
Sky conditions: mostly cloudy
Temperature: 46.0 F (7.8 C)
Dew Point: 34.0 F (1.1 C)
Relative Humidity: 62%
Pressure (altimeter): 30.09 in. Hg (1018 hPa)
ob: KBFI 232253Z 22005KT 10SM FEW050 BKN075 08/01 A3009 RMK AO2 SLP189 T00780011
cycle: 23

Station Type Date Time Source
KBFI TAF 2019/02/23 21:18 UTC NOAA

TAF
AMD KBFI 232115Z 2321/2418 21005KT P6SM VCSH BKN030 BKN060
FM240300 13006KT P6SM VCSH SCT025 BKN050
FM241200 VRB04KT P6SM -SHRASN BKN025 BKN050
FM241600 02007KT P6SM SCT030 BKN050


Example: see airport list